createdAt,value
2022-10-06T00:00:05.131Z,81.21
2022-10-06T00:01:11.465Z,80.30
2022-10-06T00:02:13.828Z,80.50
2022-10-06T00:03:15.560Z,80.29
2022-10-06T00:04:17.081Z,79.76
2022-10-06T00:05:18.622Z,80.21
2022-10-06T00:06:20.132Z,79.62
2022-10-06T00:07:21.735Z,80.20
2022-10-06T00:08:23.366Z,80.56
2022-10-06T00:09:24.920Z,79.20
2022-10-06T00:10:26.645Z,79.33
2022-10-06T00:11:28.214Z,79.93
2022-10-06T00:12:29.770Z,78.35
2022-10-06T00:13:31.876Z,78.29
2022-10-06T00:14:33.551Z,77.77
2022-10-06T00:15:35.563Z,78.10
2022-10-06T00:16:37.168Z,78.38
2022-10-06T00:17:40.136Z,78.04
2022-10-06T00:18:41.713Z,77.08
2022-10-06T00:19:43.224Z,78.38
2022-10-06T00:20:44.879Z,78.01
2022-10-06T00:21:46.566Z,78.13
2022-10-06T00:22:49.943Z,77.62
2022-10-06T00:23:51.446Z,78.75
2022-10-06T00:24:52.947Z,79.13
2022-10-06T00:25:54.697Z,78.61
2022-10-06T00:26:56.233Z,78.76
2022-10-06T00:27:57.933Z,79.40
2022-10-06T00:28:59.509Z,79.81
2022-10-06T00:30:01.033Z,79.89
2022-10-06T00:31:03.008Z,78.67
2022-10-06T00:32:04.630Z,78.90
2022-10-06T00:33:06.186Z,79.49
2022-10-06T00:34:07.737Z,78.41
2022-10-06T00:35:09.981Z,78.39
2022-10-06T00:36:11.867Z,77.92
2022-10-06T00:37:13.389Z,77.61
2022-10-06T00:38:16.610Z,77.87
2022-10-06T00:39:19.924Z,77.42
2022-10-06T00:40:22.680Z,77.17
2022-10-06T00:41:24.197Z,77.85
2022-10-06T00:42:29.008Z,78.56
2022-10-06T00:43:53.362Z,78.60
2022-10-06T00:44:57.687Z,78.77
2022-10-06T00:45:59.337Z,79.08
2022-10-06T00:47:00.894Z,78.88
2022-10-06T00:48:23.664Z,80.49
2022-10-06T00:49:30.686Z,81.40
2022-10-06T00:50:32.370Z,81.71
2022-10-06T00:51:36.331Z,82.04
2022-10-06T00:52:39.630Z,81.78
2022-10-06T00:53:42.567Z,81.67
2022-10-06T00:54:44.636Z,81.72
2022-10-06T00:55:46.184Z,82.02
2022-10-06T00:56:48.205Z,81.76
2022-10-06T00:57:52.372Z,81.23
2022-10-06T00:58:53.867Z,81.51
2022-10-06T00:59:55.572Z,81.05
2022-10-06T01:00:59.239Z,80.79
2022-10-06T01:02:32.030Z,81.05
2022-10-06T01:03:45.995Z,80.75
2022-10-06T01:04:55.678Z,80.54
2022-10-06T01:05:59.632Z,80.15
2022-10-06T01:07:01.965Z,80.73
2022-10-06T01:08:03.522Z,80.34
2022-10-06T01:09:05.284Z,78.64
2022-10-06T01:10:07.062Z,79.36
2022-10-06T01:11:16.383Z,78.51
2022-10-06T01:12:19.425Z,77.54
2022-10-06T01:13:21.537Z,77.37
2022-10-06T01:14:24.683Z,76.32
2022-10-06T01:15:28.280Z,76.23
2022-10-06T01:16:35.353Z,74.97
2022-10-06T01:17:44.085Z,74.91
2022-10-06T01:18:47.912Z,76.12
2022-10-06T01:19:56.876Z,75.19
2022-10-06T01:21:10.399Z,75.74
2022-10-06T01:22:15.858Z,75.92
2022-10-06T01:23:18.158Z,75.62
2022-10-06T01:24:19.740Z,75.45
2022-10-06T01:25:22.346Z,75.34
2022-10-06T01:26:25.473Z,75.01
2022-10-06T01:27:30.451Z,76.00
2022-10-06T01:28:33.086Z,76.27
2022-10-06T01:29:35.974Z,76.40
2022-10-06T01:30:52.043Z,75.97
2022-10-06T01:31:54.027Z,76.02
2022-10-06T01:32:55.941Z,76.20
2022-10-06T01:33:57.915Z,77.78
2022-10-06T01:34:59.499Z,78.50
2022-10-06T01:36:01.029Z,78.91
2022-10-06T01:37:02.566Z,79.74
2022-10-06T01:38:04.124Z,79.37
2022-10-06T01:39:05.643Z,79.62
2022-10-06T01:40:07.548Z,80.80
2022-10-06T01:41:09.064Z,81.36
2022-10-06T01:42:11.214Z,81.09
2022-10-06T01:43:13.255Z,81.46
2022-10-06T01:44:15.062Z,81.76
2022-10-06T01:45:16.817Z,82.53
2022-10-06T01:46:18.361Z,83.62
2022-10-06T01:47:19.945Z,82.83
2022-10-06T01:48:22.480Z,83.19
2022-10-06T01:49:24.002Z,83.04
2022-10-06T01:50:25.537Z,83.43
2022-10-06T01:51:27.046Z,83.01
2022-10-06T01:52:28.607Z,83.04
2022-10-06T01:53:30.181Z,82.73
2022-10-06T01:54:31.796Z,82.41
2022-10-06T01:55:33.345Z,83.18
2022-10-06T01:56:34.879Z,82.48
2022-10-06T01:57:41.451Z,82.85
2022-10-06T01:58:43.093Z,82.10
2022-10-06T01:59:44.671Z,82.15
2022-10-06T02:00:46.207Z,82.29
2022-10-06T02:01:47.768Z,81.69
2022-10-06T02:02:50.787Z,81.77
2022-10-06T02:03:52.300Z,81.36
2022-10-06T02:04:53.867Z,81.55
2022-10-06T02:05:57.061Z,80.59
2022-10-06T02:06:59.031Z,80.50
2022-10-06T02:08:01.608Z,79.35
2022-10-06T02:09:03.414Z,79.38
2022-10-06T02:10:06.400Z,79.64
2022-10-06T02:11:12.214Z,80.60
2022-10-06T02:12:13.737Z,81.65
2022-10-06T02:13:15.279Z,82.42
2022-10-06T02:14:18.126Z,83.52
2022-10-06T02:15:20.844Z,83.46
2022-10-06T02:16:22.880Z,83.48
2022-10-06T02:17:24.767Z,82.42
2022-10-06T02:18:27.225Z,80.64
2022-10-06T02:19:29.069Z,80.15
2022-10-06T02:20:30.637Z,80.51
2022-10-06T02:21:32.377Z,79.49
2022-10-06T02:22:39.031Z,79.28
2022-10-06T02:23:40.626Z,79.37
2022-10-06T02:24:42.182Z,79.18
2022-10-06T02:25:43.725Z,78.54
2022-10-06T02:26:45.294Z,79.11
2022-10-06T02:27:47.520Z,79.55
2022-10-06T02:28:52.012Z,78.94
2022-10-06T02:29:53.547Z,78.54
2022-10-06T02:30:56.884Z,79.25
2022-10-06T02:31:58.448Z,78.62
2022-10-06T02:33:00.022Z,78.25
2022-10-06T02:34:02.337Z,77.98
2022-10-06T02:35:04.771Z,78.45
2022-10-06T02:36:08.036Z,78.92
2022-10-06T02:37:10.709Z,79.32
2022-10-06T02:38:12.639Z,78.34
2022-10-06T02:39:14.173Z,78.75
2022-10-06T02:40:16.781Z,77.71
2022-10-06T02:41:18.337Z,78.53
2022-10-06T02:42:19.881Z,77.19
2022-10-06T02:43:22.038Z,77.74
2022-10-06T02:44:25.090Z,77.27
2022-10-06T02:45:26.676Z,78.08
2022-10-06T02:46:28.291Z,77.47
2022-10-06T02:47:32.565Z,77.22
2022-10-06T02:48:34.977Z,77.62
2022-10-06T02:49:36.519Z,77.31
2022-10-06T02:50:41.328Z,77.12
2022-10-06T02:51:42.816Z,76.63
2022-10-06T02:52:45.242Z,76.99
2022-10-06T02:53:48.605Z,75.88
2022-10-06T02:54:50.737Z,76.43
2022-10-06T02:56:04.613Z,76.04
2022-10-06T02:57:06.188Z,75.96
2022-10-06T02:58:07.704Z,75.81
2022-10-06T02:59:09.196Z,75.32
2022-10-06T03:00:11.623Z,75.73
2022-10-06T03:01:16.994Z,75.20
2022-10-06T03:02:18.794Z,75.52
2022-10-06T03:03:20.502Z,75.14
2022-10-06T03:04:22.017Z,75.15
2022-10-06T03:05:23.582Z,74.50
2022-10-06T03:06:27.891Z,74.85
2022-10-06T03:07:29.460Z,74.63
2022-10-06T03:08:31.472Z,73.62
2022-10-06T03:09:33.127Z,73.19
2022-10-06T03:10:34.622Z,72.94
2022-10-06T03:11:42.646Z,73.49
2022-10-06T03:12:44.214Z,73.36
2022-10-06T03:13:51.613Z,73.02
2022-10-06T03:14:53.143Z,73.34
2022-10-06T03:15:54.723Z,73.53
2022-10-06T03:16:57.340Z,72.78
2022-10-06T03:17:59.121Z,73.20
2022-10-06T03:19:01.322Z,72.85
2022-10-06T03:20:03.998Z,73.34
2022-10-06T03:21:05.528Z,72.30
2022-10-06T03:22:07.176Z,73.05
2022-10-06T03:23:13.348Z,72.72
2022-10-06T03:24:15.965Z,73.09
2022-10-06T03:25:17.466Z,73.74
2022-10-06T03:26:21.787Z,73.84
2022-10-06T03:27:23.337Z,73.15
2022-10-06T03:28:25.039Z,73.72
2022-10-06T03:29:26.980Z,74.81
2022-10-06T03:30:28.526Z,74.91
2022-10-06T03:31:30.289Z,75.10
2022-10-06T03:32:31.940Z,74.84
2022-10-06T03:33:34.776Z,74.86
2022-10-06T03:34:37.238Z,75.12
2022-10-06T03:35:38.980Z,74.51
2022-10-06T03:36:41.456Z,74.20
2022-10-06T03:37:42.997Z,74.15
2022-10-06T03:38:44.729Z,75.42
2022-10-06T03:39:46.283Z,75.20
2022-10-06T03:40:47.797Z,75.54
2022-10-06T03:41:49.497Z,75.07
2022-10-06T03:42:51.023Z,75.45
2022-10-06T03:43:54.418Z,75.21
2022-10-06T03:44:55.925Z,75.33
2022-10-06T03:45:59.206Z,74.85
2022-10-06T03:47:00.868Z,74.08
2022-10-06T03:48:02.459Z,73.67
2022-10-06T03:49:05.247Z,73.31
2022-10-06T03:50:07.312Z,73.95
2022-10-06T03:51:15.151Z,73.94
2022-10-06T03:52:16.655Z,73.89
2022-10-06T03:53:18.335Z,73.79
2022-10-06T03:54:20.107Z,73.17
2022-10-06T03:55:22.074Z,74.38
2022-10-06T03:56:28.495Z,74.24
2022-10-06T03:57:30.008Z,74.39
2022-10-06T03:58:33.569Z,73.59
2022-10-06T03:59:35.114Z,73.82
2022-10-06T04:00:36.687Z,74.59
2022-10-06T04:01:44.998Z,75.04
2022-10-06T04:02:46.582Z,75.06
2022-10-06T04:03:48.264Z,74.34
2022-10-06T04:04:49.811Z,74.79
2022-10-06T04:05:56.531Z,75.00
2022-10-06T04:06:58.189Z,75.05
2022-10-06T04:07:59.697Z,74.75
2022-10-06T04:09:02.004Z,74.40
2022-10-06T04:10:03.703Z,75.31
2022-10-06T04:11:22.703Z,75.31
2022-10-06T04:12:24.234Z,74.72
2022-10-06T04:13:25.760Z,75.20
2022-10-06T04:14:27.335Z,76.87
2022-10-06T04:15:28.838Z,86.20
2022-10-06T04:16:32.600Z,82.58
2022-10-06T04:17:34.167Z,79.11
2022-10-06T04:18:35.702Z,77.72
2022-10-06T04:19:37.555Z,77.66
2022-10-06T04:20:39.844Z,76.84
2022-10-06T04:21:43.764Z,77.88
2022-10-06T04:22:45.316Z,77.80
2022-10-06T04:23:47.210Z,78.10
2022-10-06T04:24:48.727Z,77.83
2022-10-06T04:25:55.152Z,78.20
2022-10-06T04:27:17.463Z,77.75
2022-10-06T04:28:19.021Z,78.22
2022-10-06T04:29:21.098Z,77.92
2022-10-06T04:30:22.648Z,77.22
2022-10-06T04:31:26.773Z,77.98
2022-10-06T04:32:29.703Z,77.46
2022-10-06T04:33:34.255Z,76.89
2022-10-06T04:34:35.774Z,77.71
2022-10-06T04:35:37.286Z,76.72
2022-10-06T04:36:41.153Z,78.55
2022-10-06T04:37:42.795Z,78.69
2022-10-06T04:38:44.386Z,77.32
2022-10-06T04:39:45.964Z,77.34
2022-10-06T04:40:47.505Z,77.07
2022-10-06T04:41:49.024Z,76.14
2022-10-06T04:42:50.601Z,75.81
2022-10-06T04:43:52.611Z,76.26
2022-10-06T04:44:54.337Z,77.18
2022-10-06T04:45:57.918Z,77.13
2022-10-06T04:47:01.268Z,77.07
2022-10-06T04:48:02.829Z,77.25
2022-10-06T04:49:04.501Z,76.77
2022-10-06T04:50:06.380Z,75.77
2022-10-06T04:51:14.494Z,75.33
2022-10-06T04:52:16.024Z,75.43
2022-10-06T04:53:17.533Z,75.13
2022-10-06T04:54:19.463Z,78.14
2022-10-06T04:55:21.073Z,77.37
2022-10-06T04:56:25.288Z,75.81
2022-10-06T04:57:27.783Z,76.09
2022-10-06T04:58:37.230Z,75.90
2022-10-06T04:59:59.514Z,74.88
2022-10-06T05:01:14.557Z,74.11
2022-10-06T05:02:16.208Z,74.38
2022-10-06T05:03:17.827Z,74.09
2022-10-06T05:04:19.787Z,74.25
2022-10-06T05:05:21.684Z,74.08
2022-10-06T05:06:27.726Z,73.24
2022-10-06T05:07:29.625Z,73.75
2022-10-06T05:08:31.731Z,73.61
2022-10-06T05:09:34.673Z,73.35
2022-10-06T05:10:36.207Z,73.59
2022-10-06T05:11:38.316Z,73.51
2022-10-06T05:12:40.091Z,73.53
2022-10-06T05:13:42.157Z,73.73
2022-10-06T05:14:46.799Z,73.16
2022-10-06T05:15:59.317Z,74.05
2022-10-06T05:17:01.024Z,73.33
2022-10-06T05:18:02.783Z,73.45
2022-10-06T05:19:04.319Z,73.54
2022-10-06T05:20:06.404Z,73.23
2022-10-06T05:21:12.287Z,74.54
2022-10-06T05:22:13.835Z,74.51
2022-10-06T05:23:15.355Z,75.82
2022-10-06T05:24:17.452Z,76.35
2022-10-06T05:25:19.096Z,76.70
2022-10-06T05:26:23.479Z,75.65
2022-10-06T05:27:25.008Z,75.93
2022-10-06T05:28:28.950Z,75.42
2022-10-06T05:29:30.826Z,76.09
2022-10-06T05:30:32.385Z,75.01
2022-10-06T05:31:38.877Z,75.03
2022-10-06T05:32:40.610Z,74.66
2022-10-06T05:33:42.390Z,75.26
2022-10-06T05:34:43.901Z,74.51
2022-10-06T05:35:56.355Z,75.04
2022-10-06T05:36:57.871Z,74.24
2022-10-06T05:37:59.398Z,74.41
2022-10-06T05:39:01.721Z,73.89
2022-10-06T05:40:03.374Z,75.51
2022-10-06T05:41:18.747Z,74.54
2022-10-06T05:42:20.768Z,74.12
2022-10-06T05:43:22.409Z,72.60
2022-10-06T05:44:24.033Z,73.18
2022-10-06T05:45:25.538Z,72.82
2022-10-06T05:46:30.355Z,72.61
2022-10-06T05:47:32.137Z,72.37
2022-10-06T05:48:33.974Z,71.46
2022-10-06T05:49:35.551Z,70.17
2022-10-06T05:50:37.398Z,71.92
2022-10-06T05:51:41.916Z,73.22
2022-10-06T05:52:43.417Z,72.51
2022-10-06T05:53:45.792Z,72.80
2022-10-06T05:54:47.320Z,72.62
2022-10-06T05:55:48.844Z,72.28
2022-10-06T05:56:50.467Z,71.87
2022-10-06T05:57:54.618Z,70.99
2022-10-06T05:58:57.818Z,71.31
2022-10-06T05:59:59.743Z,71.39
2022-10-06T06:01:16.275Z,70.33
2022-10-06T06:02:17.991Z,69.71
2022-10-06T06:03:19.619Z,69.32
2022-10-06T06:04:21.186Z,69.27
2022-10-06T06:05:22.708Z,68.66
2022-10-06T06:06:30.473Z,68.97
2022-10-06T06:07:32.545Z,67.54
2022-10-06T06:08:34.113Z,68.68
2022-10-06T06:09:35.767Z,73.08
2022-10-06T06:10:37.597Z,75.63
2022-10-06T06:11:41.802Z,77.51
2022-10-06T06:12:43.328Z,72.53
2022-10-06T06:13:44.992Z,69.53
2022-10-06T06:15:04.950Z,68.56
2022-10-06T06:16:10.738Z,67.59
2022-10-06T06:17:12.288Z,66.86
2022-10-06T06:18:13.794Z,65.78
2022-10-06T06:19:15.369Z,65.24
2022-10-06T06:20:16.953Z,64.24
2022-10-06T06:21:18.618Z,64.42
2022-10-06T06:22:20.307Z,62.68
2022-10-06T06:23:21.817Z,63.32
2022-10-06T06:24:23.340Z,63.41
2022-10-06T06:25:24.903Z,62.90
2022-10-06T06:26:29.025Z,62.99
2022-10-06T06:27:30.567Z,63.87
2022-10-06T06:28:32.758Z,62.62
2022-10-06T06:29:34.643Z,61.91
2022-10-06T06:30:36.203Z,61.60
2022-10-06T06:31:40.050Z,61.84
2022-10-06T06:32:41.655Z,62.69
2022-10-06T06:33:43.815Z,61.60
2022-10-06T06:34:45.347Z,61.32
2022-10-06T06:35:46.857Z,61.13
2022-10-06T06:36:53.639Z,61.44
2022-10-06T06:37:55.292Z,61.85
2022-10-06T06:38:58.248Z,61.82
2022-10-06T06:39:59.917Z,62.41
2022-10-06T06:41:01.441Z,62.39
2022-10-06T06:42:05.157Z,62.93
2022-10-06T06:43:06.742Z,63.27
2022-10-06T06:44:11.212Z,64.20
2022-10-06T06:45:14.166Z,64.81
2022-10-06T06:46:17.847Z,65.03
2022-10-06T06:47:24.406Z,64.95
2022-10-06T06:48:28.532Z,65.27
2022-10-06T06:49:30.378Z,64.17
2022-10-06T06:50:32.664Z,63.83
2022-10-06T06:51:37.297Z,63.03
2022-10-06T06:52:38.938Z,63.73
2022-10-06T06:53:41.041Z,62.89
2022-10-06T06:54:42.601Z,62.68
2022-10-06T06:55:54.169Z,62.43
2022-10-06T06:56:56.661Z,61.83
2022-10-06T06:57:58.166Z,60.53
2022-10-06T06:58:59.686Z,60.52
2022-10-06T07:00:08.028Z,61.25
2022-10-06T07:01:14.173Z,60.63
2022-10-06T07:02:15.804Z,60.58
2022-10-06T07:03:38.474Z,59.20
2022-10-06T07:04:41.766Z,59.22
2022-10-06T07:05:46.352Z,59.82
2022-10-06T07:06:53.406Z,58.70
2022-10-06T07:07:54.992Z,58.31
2022-10-06T07:09:00.229Z,58.39
2022-10-06T07:10:01.996Z,58.55
2022-10-06T07:11:22.093Z,57.66
2022-10-06T07:12:25.190Z,56.66
2022-10-06T07:13:26.718Z,55.67
2022-10-06T07:14:28.319Z,55.79
2022-10-06T07:15:48.710Z,55.16
2022-10-06T07:17:08.825Z,54.36
2022-10-06T07:18:28.871Z,53.97
2022-10-06T07:19:43.032Z,54.24
2022-10-06T07:21:03.097Z,54.02
2022-10-06T07:22:32.181Z,54.78
2022-10-06T07:23:52.156Z,56.64
2022-10-06T07:25:07.514Z,57.44
2022-10-06T07:26:09.171Z,57.75
2022-10-06T07:27:11.291Z,59.14
2022-10-06T07:28:12.886Z,59.35
2022-10-06T07:29:14.460Z,58.74
2022-10-06T07:30:19.462Z,59.89
2022-10-06T07:31:21.189Z,59.20
2022-10-06T07:32:25.070Z,58.69
2022-10-06T07:33:32.361Z,57.41
2022-10-06T07:34:33.928Z,57.43
2022-10-06T07:35:35.486Z,56.88
2022-10-06T07:36:37.054Z,56.69
2022-10-06T07:37:39.150Z,56.69
2022-10-06T07:38:41.554Z,55.95
2022-10-06T07:39:49.526Z,57.02
2022-10-06T07:41:17.749Z,56.45
2022-10-06T07:42:17.872Z,55.03
2022-10-06T07:43:19.379Z,54.33
2022-10-06T07:44:21.506Z,54.36
2022-10-06T07:45:45.081Z,54.14
2022-10-06T07:46:46.789Z,53.30
2022-10-06T07:47:48.293Z,53.95
2022-10-06T07:48:49.805Z,53.26
2022-10-06T07:49:51.316Z,52.76
2022-10-06T07:50:53.335Z,53.32
2022-10-06T07:51:54.914Z,53.08
2022-10-06T07:52:56.496Z,53.04
2022-10-06T07:53:58.057Z,53.16
2022-10-06T07:54:59.581Z,53.56
2022-10-06T07:56:05.702Z,52.63
2022-10-06T07:57:07.231Z,53.06
2022-10-06T07:58:14.025Z,52.17
2022-10-06T07:59:15.545Z,52.14
2022-10-06T08:00:20.429Z,52.11
2022-10-06T08:01:22.140Z,51.55
2022-10-06T08:02:29.243Z,51.60
2022-10-06T08:03:33.187Z,51.45
2022-10-06T08:04:34.718Z,51.12
2022-10-06T08:05:36.280Z,52.11
2022-10-06T08:06:38.584Z,53.09
2022-10-06T08:07:40.800Z,52.50
2022-10-06T08:08:44.077Z,51.95
2022-10-06T08:09:45.588Z,51.76
2022-10-06T08:10:56.808Z,51.39
2022-10-06T08:11:58.380Z,51.31
2022-10-06T08:13:01.281Z,51.25
2022-10-06T08:14:02.834Z,51.10
2022-10-06T08:15:07.573Z,51.55
2022-10-06T08:16:13.094Z,51.65
2022-10-06T08:17:14.803Z,51.47
2022-10-06T08:18:41.155Z,52.10
2022-10-06T08:19:38.557Z,51.61
2022-10-06T08:20:41.024Z,51.58
2022-10-06T08:21:42.536Z,51.35
2022-10-06T08:22:44.096Z,52.45
2022-10-06T08:23:47.624Z,53.11
2022-10-06T08:25:05.188Z,53.28
2022-10-06T08:26:07.125Z,53.05
2022-10-06T08:27:09.743Z,53.71
2022-10-06T08:28:12.429Z,52.80
2022-10-06T08:29:13.961Z,52.69
2022-10-06T08:30:15.518Z,53.54
2022-10-06T08:31:19.241Z,54.19
2022-10-06T08:32:22.223Z,55.13
2022-10-06T08:33:23.811Z,53.93
2022-10-06T08:34:25.391Z,53.30
2022-10-06T08:35:27.219Z,53.33
2022-10-06T08:36:31.868Z,55.26
2022-10-06T08:37:34.125Z,53.69
2022-10-06T08:38:37.495Z,53.90
2022-10-06T08:39:39.012Z,54.45
2022-10-06T08:40:49.639Z,54.55
2022-10-06T08:41:53.197Z,54.30
2022-10-06T08:43:01.018Z,53.61
2022-10-06T08:44:08.604Z,55.62
2022-10-06T08:45:17.767Z,55.77
2022-10-06T08:46:24.682Z,54.78
2022-10-06T08:47:33.922Z,54.65
2022-10-06T08:48:38.758Z,56.13
2022-10-06T08:49:46.309Z,53.87
2022-10-06T08:50:59.714Z,55.18
2022-10-06T08:52:14.267Z,56.51
2022-10-06T08:53:39.393Z,56.43
2022-10-06T08:54:58.907Z,57.91
2022-10-06T08:56:11.054Z,55.00
2022-10-06T08:57:15.706Z,57.53
2022-10-06T08:58:23.183Z,56.56
2022-10-06T08:59:25.014Z,57.14
2022-10-06T09:00:29.498Z,57.41
2022-10-06T09:01:40.265Z,55.28
2022-10-06T09:02:49.049Z,53.78
2022-10-06T09:03:56.411Z,54.32
2022-10-06T09:05:01.348Z,55.21
2022-10-06T09:06:31.464Z,54.80
2022-10-06T09:08:13.597Z,54.72
2022-10-06T09:09:21.361Z,53.97
2022-10-06T09:10:36.011Z,54.52
2022-10-06T09:11:55.003Z,54.08
2022-10-06T09:13:02.830Z,54.91
2022-10-06T09:14:17.402Z,53.57
2022-10-06T09:15:55.840Z,53.01
2022-10-06T09:17:02.007Z,53.55
2022-10-06T09:18:10.734Z,53.79
2022-10-06T09:19:40.129Z,52.98
2022-10-06T09:20:55.033Z,52.84
2022-10-06T09:22:00.101Z,52.49
2022-10-06T09:23:05.120Z,54.03
2022-10-06T09:24:13.796Z,52.04
2022-10-06T09:25:22.176Z,53.43
2022-10-06T09:26:30.200Z,53.38
2022-10-06T09:27:37.424Z,52.58
2022-10-06T09:28:39.307Z,52.90
2022-10-06T09:29:40.876Z,53.16
2022-10-06T09:30:43.386Z,52.81
2022-10-06T09:31:50.507Z,52.82
2022-10-06T09:33:00.602Z,51.90
2022-10-06T09:34:09.308Z,52.42
2022-10-06T09:35:22.392Z,52.28
2022-10-06T09:36:24.293Z,51.49
2022-10-06T09:37:26.997Z,50.53
2022-10-06T09:38:47.685Z,52.00
2022-10-06T09:39:51.463Z,51.62
2022-10-06T09:40:54.559Z,50.76
2022-10-06T09:41:56.584Z,51.50
2022-10-06T09:42:58.146Z,52.04
2022-10-06T09:44:04.728Z,51.81
2022-10-06T09:45:25.470Z,51.55
2022-10-06T09:46:31.573Z,50.31
2022-10-06T09:47:35.111Z,50.96
2022-10-06T09:48:37.038Z,50.99
2022-10-06T09:49:38.595Z,50.86
2022-10-06T09:50:40.797Z,50.74
2022-10-06T09:52:01.241Z,48.94
2022-10-06T09:53:11.225Z,48.05
2022-10-06T09:54:14.903Z,48.82
2022-10-06T09:55:19.077Z,48.64
2022-10-06T09:56:20.703Z,48.66
2022-10-06T09:57:26.599Z,48.61
2022-10-06T09:58:38.075Z,49.27
2022-10-06T09:59:45.404Z,49.40
2022-10-06T10:01:00.247Z,48.50
2022-10-06T10:02:04.530Z,49.51
2022-10-06T10:03:09.225Z,50.80
2022-10-06T10:04:20.637Z,48.99
2022-10-06T10:05:23.519Z,48.88
2022-10-06T10:06:33.060Z,49.34
2022-10-06T10:07:36.281Z,48.93
2022-10-06T10:08:37.811Z,47.98
2022-10-06T10:09:41.806Z,48.00
2022-10-06T10:10:43.521Z,47.96
2022-10-06T10:12:24.600Z,47.81
2022-10-06T10:13:26.907Z,48.96
2022-10-06T10:14:36.644Z,48.64
2022-10-06T10:15:53.626Z,47.65
2022-10-06T10:16:55.329Z,48.38
2022-10-06T10:18:05.341Z,48.66
2022-10-06T10:19:20.341Z,48.44
2022-10-06T10:20:24.649Z,46.50
2022-10-06T10:21:29.936Z,46.66
2022-10-06T10:22:41.241Z,47.05
2022-10-06T10:23:55.328Z,47.42
2022-10-06T10:25:34.249Z,47.97
2022-10-06T10:26:49.296Z,48.34
2022-10-06T10:28:06.101Z,47.78
2022-10-06T10:29:33.182Z,48.29
2022-10-06T10:30:49.968Z,47.85
2022-10-06T10:32:12.739Z,48.15
2022-10-06T10:33:54.104Z,48.89
2022-10-06T10:35:32.212Z,46.84
2022-10-06T10:36:38.724Z,47.26
2022-10-06T10:37:52.168Z,47.73
2022-10-06T10:38:56.029Z,48.36
2022-10-06T10:40:35.959Z,48.24
2022-10-06T10:41:46.478Z,49.11
2022-10-06T11:20:19.585Z,46.03
2022-10-06T11:21:27.079Z,47.44
2022-10-06T11:22:47.743Z,45.96
2022-10-06T11:24:06.495Z,45.58
2022-10-06T11:25:21.841Z,46.37
2022-10-06T11:26:41.218Z,46.04
2022-10-06T11:27:54.483Z,46.19
2022-10-06T11:29:15.608Z,45.75
2022-10-06T11:30:26.434Z,45.30
2022-10-06T11:31:54.822Z,45.19
2022-10-06T11:33:14.228Z,44.05
2022-10-06T11:34:15.727Z,44.55
2022-10-06T11:35:27.036Z,44.24
2022-10-06T11:36:56.098Z,44.77
2022-10-06T11:38:00.808Z,44.94
2022-10-06T11:39:14.543Z,45.19
2022-10-06T11:40:28.187Z,44.57
2022-10-06T11:41:37.838Z,43.85
2022-10-06T11:43:02.865Z,43.97
2022-10-06T11:44:15.099Z,44.41
2022-10-06T11:45:23.561Z,44.43
2022-10-06T11:46:32.156Z,44.89
2022-10-06T11:47:48.948Z,44.92
2022-10-06T11:48:50.696Z,44.84
2022-10-06T11:49:53.260Z,45.21
2022-10-06T11:50:55.782Z,45.20
2022-10-06T11:52:10.257Z,45.73
2022-10-06T11:53:39.779Z,45.06
2022-10-06T11:54:53.513Z,45.30
2022-10-06T11:56:36.437Z,44.42
2022-10-06T11:58:05.348Z,45.91
2022-10-06T11:59:26.345Z,45.07
2022-10-06T12:00:33.841Z,44.94
2022-10-06T12:01:36.341Z,45.35
2022-10-06T12:02:40.393Z,45.15
2022-10-06T12:03:48.188Z,44.14
2022-10-06T12:05:37.421Z,44.43
2022-10-06T12:06:44.704Z,44.37
2022-10-06T12:07:52.270Z,44.83
2022-10-06T12:08:53.858Z,44.22
2022-10-06T12:10:32.059Z,44.59
2022-10-06T12:11:43.868Z,45.38
2022-10-06T12:13:06.223Z,44.30
2022-10-06T12:17:38.749Z,43.94
2022-10-06T12:19:08.172Z,43.94
2022-10-06T12:20:42.501Z,43.49
2022-10-06T12:22:01.180Z,43.41
2022-10-06T12:23:09.131Z,44.01
2022-10-06T12:24:31.866Z,43.54
2022-10-06T12:26:08.627Z,43.17
2022-10-06T12:27:30.011Z,43.01
2022-10-06T12:28:44.452Z,42.08
2022-10-06T12:29:49.013Z,42.29
2022-10-06T12:31:21.730Z,42.44
2022-10-06T12:32:32.635Z,42.34
2022-10-06T12:33:39.501Z,42.28
2022-10-06T12:34:52.861Z,42.01
2022-10-06T12:36:02.996Z,42.16
2022-10-06T12:37:29.860Z,41.56
2022-10-06T12:38:31.335Z,42.75
2022-10-06T12:39:32.925Z,41.75
2022-10-06T12:40:52.452Z,42.73
2022-10-06T12:42:07.766Z,43.75
2022-10-06T12:44:45.693Z,42.07
2022-10-06T12:49:14.963Z,42.14
2022-10-06T12:50:37.174Z,41.55
2022-10-06T12:51:43.831Z,42.05
2022-10-06T12:52:59.005Z,42.01
2022-10-06T12:54:21.943Z,41.29
2022-10-06T12:55:27.647Z,41.45
2022-10-06T12:56:32.489Z,41.16
2022-10-06T12:57:48.347Z,40.60
2022-10-06T12:58:49.842Z,40.72
2022-10-06T12:59:51.385Z,40.80
2022-10-06T13:00:53.528Z,41.52
2022-10-06T13:01:58.809Z,41.55
2022-10-06T13:03:03.303Z,40.80
2022-10-06T13:04:04.849Z,41.15
2022-10-06T13:05:13.248Z,41.37
2022-10-06T13:06:19.308Z,41.15
2022-10-06T13:07:28.814Z,40.58
2022-10-06T13:08:35.977Z,40.25
2022-10-06T13:09:37.618Z,40.28
2022-10-06T13:10:39.281Z,39.44
2022-10-06T13:11:40.874Z,40.00
2022-10-06T13:12:46.771Z,40.03
2022-10-06T13:13:56.286Z,40.58
2022-10-06T13:15:18.442Z,39.43
2022-10-06T13:16:32.350Z,39.88
2022-10-06T13:17:34.030Z,40.46
2022-10-06T13:18:36.190Z,40.27
2022-10-06T13:19:39.276Z,39.86
2022-10-06T13:21:00.767Z,40.39
2022-10-06T13:22:03.521Z,40.11
2022-10-06T13:23:12.389Z,40.00
2022-10-06T13:24:19.440Z,39.95
2022-10-06T13:25:21.078Z,39.49
2022-10-06T13:26:25.660Z,39.40
2022-10-06T13:27:27.249Z,39.82
2022-10-06T13:28:45.021Z,39.02
2022-10-06T13:29:46.594Z,39.87
2022-10-06T13:31:04.088Z,41.05
2022-10-06T13:32:18.029Z,41.01
2022-10-06T13:33:21.002Z,42.12
2022-10-06T13:34:32.433Z,41.85
2022-10-06T13:35:34.049Z,41.46
2022-10-06T13:36:38.800Z,40.84
2022-10-06T13:37:40.391Z,40.85
2022-10-06T13:38:42.411Z,40.26
2022-10-06T13:39:44.122Z,41.02
2022-10-06T13:41:01.882Z,41.99
2022-10-06T13:42:17.812Z,40.71
2022-10-06T13:43:20.233Z,40.56
2022-10-06T13:44:31.097Z,41.36
2022-10-06T13:45:32.960Z,40.88
2022-10-06T13:46:42.322Z,40.99
2022-10-06T13:47:44.049Z,41.18
2022-10-06T13:49:03.369Z,42.43
2022-10-06T13:50:08.056Z,41.72
2022-10-06T13:51:18.710Z,41.89
2022-10-06T13:52:33.086Z,42.37
2022-10-06T13:53:34.728Z,42.59
2022-10-06T13:54:50.800Z,42.37
2022-10-06T13:55:53.144Z,41.91
2022-10-06T13:56:54.963Z,40.94
2022-10-06T13:58:05.187Z,42.00
2022-10-06T13:59:18.827Z,41.71
2022-10-06T14:00:26.024Z,41.33
2022-10-06T14:01:32.011Z,41.60
2022-10-06T14:02:35.164Z,41.56
2022-10-06T14:04:39.622Z,42.08
2022-10-06T14:05:42.824Z,41.91
2022-10-06T14:07:01.165Z,41.32
2022-10-06T14:08:11.439Z,42.53
2022-10-06T14:09:13.892Z,42.32
2022-10-06T14:10:31.422Z,42.42
2022-10-06T14:11:34.233Z,43.40
2022-10-06T14:12:42.388Z,42.15
2022-10-06T14:13:55.586Z,42.49
2022-10-06T14:14:57.416Z,43.22
2022-10-06T14:16:02.147Z,43.30
2022-10-06T14:17:04.464Z,42.68
2022-10-06T14:18:06.180Z,42.85
2022-10-06T14:19:30.436Z,40.94
2022-10-06T14:20:48.529Z,41.32
2022-10-06T14:21:51.373Z,41.94
2022-10-06T14:22:52.881Z,42.55
2022-10-06T14:23:54.579Z,41.91
2022-10-06T14:24:56.098Z,42.58
2022-10-06T14:25:57.828Z,42.53
2022-10-06T14:27:06.261Z,41.57
2022-10-06T14:28:07.841Z,41.48
2022-10-06T14:29:10.295Z,42.43
2022-10-06T14:30:11.977Z,42.57
2022-10-06T14:31:14.795Z,41.60
2022-10-06T14:32:17.679Z,41.85
2022-10-06T14:33:19.443Z,42.27
2022-10-06T14:34:21.764Z,43.10
2022-10-06T14:35:23.307Z,41.82
2022-10-06T14:36:30.187Z,41.88
2022-10-06T14:37:35.726Z,42.06
2022-10-06T14:38:39.231Z,42.50
2022-10-06T14:39:45.623Z,42.00
2022-10-06T14:40:47.212Z,42.85
2022-10-06T14:41:48.929Z,43.09
2022-10-06T14:42:50.458Z,42.66
2022-10-06T14:43:56.810Z,42.76
2022-10-06T14:44:58.610Z,42.77
2022-10-06T14:46:04.040Z,42.73
2022-10-06T14:47:09.401Z,41.48
2022-10-06T14:48:15.033Z,42.30
2022-10-06T14:49:16.933Z,43.07
2022-10-06T14:50:18.456Z,43.22
2022-10-06T14:51:21.308Z,42.13
2022-10-06T14:52:22.926Z,42.13
2022-10-06T14:53:24.630Z,42.11
2022-10-06T14:54:26.213Z,41.61
2022-10-06T14:55:30.550Z,41.93
2022-10-06T14:56:34.699Z,42.29